sensor_id;sensor_type;location;lat;lon;timestamp;pressure;altitude;pressure_sealevel;temperature
76713;BMP280;65640;43.154;25.658;2023-04-06T00:01:36;100474.09;;;5.20
76713;BMP280;65640;43.154;25.658;2023-04-06T00:04:01;100472.00;;;5.17
76713;BMP280;65640;43.154;25.658;2023-04-06T00:06:27;100468.38;;;5.18
76713;BMP280;65640;43.154;25.658;2023-04-06T00:08:52;100472.56;;;5.19
76713;BMP280;65640;43.154;25.658;2023-04-06T00:11:18;100473.56;;;5.18
76713;BMP280;65640;43.154;25.658;2023-04-06T00:13:44;100466.31;;;5.20
76713;BMP280;65640;43.154;25.658;2023-04-06T00:16:10;100472.66;;;5.24
76713;BMP280;65640;43.154;25.658;2023-04-06T00:18:35;100470.47;;;5.33
76713;BMP280;65640;43.154;25.658;2023-04-06T00:21:01;100472.19;;;5.39
76713;BMP280;65640;43.154;25.658;2023-04-06T00:23:26;100469.88;;;5.43
76713;BMP280;65640;43.154;25.658;2023-04-06T00:25:51;100455.41;;;5.47
76713;BMP280;65640;43.154;25.658;2023-04-06T00:28:17;100458.22;;;5.45
76713;BMP280;65640;43.154;25.658;2023-04-06T00:30:43;100455.88;;;5.44
76713;BMP280;65640;43.154;25.658;2023-04-06T00:33:08;100456.13;;;5.42
76713;BMP280;65640;43.154;25.658;2023-04-06T00:35:34;100451.47;;;5.44
76713;BMP280;65640;43.154;25.658;2023-04-06T00:37:59;100446.50;;;5.43
76713;BMP280;65640;43.154;25.658;2023-04-06T00:40:25;100445.22;;;5.40
76713;BMP280;65640;43.154;25.658;2023-04-06T00:42:53;100435.72;;;5.34
76713;BMP280;65640;43.154;25.658;2023-04-06T00:45:19;100439.00;;;5.29
76713;BMP280;65640;43.154;25.658;2023-04-06T00:47:44;100434.38;;;5.31
76713;BMP280;65640;43.154;25.658;2023-04-06T00:50:10;100430.66;;;5.27
76713;BMP280;65640;43.154;25.658;2023-04-06T00:52:35;100426.47;;;5.26
76713;BMP280;65640;43.154;25.658;2023-04-06T00:55:02;100427.97;;;5.22
76713;BMP280;65640;43.154;25.658;2023-04-06T00:57:27;100422.47;;;5.19
76713;BMP280;65640;43.154;25.658;2023-04-06T00:59:53;100425.19;;;5.12
76713;BMP280;65640;43.154;25.658;2023-04-06T01:02:19;100426.66;;;5.08
76713;BMP280;65640;43.154;25.658;2023-04-06T01:04:44;100422.50;;;5.07
76713;BMP280;65640;43.154;25.658;2023-04-06T01:07:10;100416.97;;;5.04
76713;BMP280;65640;43.154;25.658;2023-04-06T01:09:35;100414.03;;;5.00
76713;BMP280;65640;43.154;25.658;2023-04-06T01:12:01;100423.03;;;4.97
76713;BMP280;65640;43.154;25.658;2023-04-06T01:14:27;100421.25;;;4.98
76713;BMP280;65640;43.154;25.658;2023-04-06T01:16:53;100413.47;;;4.98
76713;BMP280;65640;43.154;25.658;2023-04-06T01:19:18;100411.34;;;4.95
76713;BMP280;65640;43.154;25.658;2023-04-06T01:21:44;100407.41;;;4.92
76713;BMP280;65640;43.154;25.658;2023-04-06T01:24:09;100401.09;;;4.88
76713;BMP280;65640;43.154;25.658;2023-04-06T01:26:35;100402.47;;;4.91
76713;BMP280;65640;43.154;25.658;2023-04-06T01:29:02;100398.28;;;4.90
76713;BMP280;65640;43.154;25.658;2023-04-06T01:31:28;100394.00;;;4.84
76713;BMP280;65640;43.154;25.658;2023-04-06T01:33:54;100388.03;;;4.83
76713;BMP280;65640;43.154;25.658;2023-04-06T01:36:20;100391.19;;;4.85
76713;BMP280;65640;43.154;25.658;2023-04-06T01:38:45;100386.44;;;4.82
76713;BMP280;65640;43.154;25.658;2023-04-06T01:41:11;100378.44;;;4.84
76713;BMP280;65640;43.154;25.658;2023-04-06T01:43:37;100385.78;;;4.87
76713;BMP280;65640;43.154;25.658;2023-04-06T01:46:03;100382.63;;;4.85
76713;BMP280;65640;43.154;25.658;2023-04-06T01:48:28;100384.53;;;4.89
76713;BMP280;65640;43.154;25.658;2023-04-06T01:50:54;100378.88;;;4.81
76713;BMP280;65640;43.154;25.658;2023-04-06T01:53:20;100382.63;;;4.85
76713;BMP280;65640;43.154;25.658;2023-04-06T01:55:46;100377.31;;;4.80
76713;BMP280;65640;43.154;25.658;2023-04-06T01:58:12;100380.34;;;4.77
76713;BMP280;65640;43.154;25.658;2023-04-06T02:00:38;100376.28;;;4.81
76713;BMP280;65640;43.154;25.658;2023-04-06T02:03:03;100370.06;;;4.93
76713;BMP280;65640;43.154;25.658;2023-04-06T02:05:31;100371.09;;;4.92
76713;BMP280;65640;43.154;25.658;2023-04-06T02:07:57;100374.59;;;4.86
76713;BMP280;65640;43.154;25.658;2023-04-06T02:10:22;100370.06;;;4.93
76713;BMP280;65640;43.154;25.658;2023-04-06T02:12:49;100375.03;;;4.95
76713;BMP280;65640;43.154;25.658;2023-04-06T02:15:15;100356.66;;;4.96
76713;BMP280;65640;43.154;25.658;2023-04-06T02:17:41;100363.28;;;5.04
76713;BMP280;65640;43.154;25.658;2023-04-06T02:20:07;100361.56;;;5.10
76713;BMP280;65640;43.154;25.658;2023-04-06T02:22:33;100360.00;;;5.09
76713;BMP280;65640;43.154;25.658;2023-04-06T02:24:59;100352.22;;;5.09
76713;BMP280;65640;43.154;25.658;2023-04-06T02:27:24;100355.06;;;5.07
76713;BMP280;65640;43.154;25.658;2023-04-06T02:29:50;100347.25;;;5.07
76713;BMP280;65640;43.154;25.658;2023-04-06T02:32:15;100347.16;;;5.02
76713;BMP280;65640;43.154;25.658;2023-04-06T02:34:41;100346.13;;;5.03
76713;BMP280;65640;43.154;25.658;2023-04-06T02:37:06;100347.59;;;4.99
76713;BMP280;65640;43.154;25.658;2023-04-06T02:39:32;100349.28;;;5.05
76713;BMP280;65640;43.154;25.658;2023-04-06T02:41:57;100349.28;;;5.05
76713;BMP280;65640;43.154;25.658;2023-04-06T02:44:23;100344.91;;;5.06
76713;BMP280;65640;43.154;25.658;2023-04-06T02:46:48;100342.41;;;4.99
76713;BMP280;65640;43.154;25.658;2023-04-06T02:49:14;100342.97;;;5.01
76713;BMP280;65640;43.154;25.658;2023-04-06T02:51:39;100344.00;;;5.00
76713;BMP280;65640;43.154;25.658;2023-04-06T02:54:05;100332.38;;;5.03
76713;BMP280;65640;43.154;25.658;2023-04-06T02:56:30;100339.81;;;4.99
76713;BMP280;65640;43.154;25.658;2023-04-06T02:58:56;100345.81;;;4.99
76713;BMP280;65640;43.154;25.658;2023-04-06T03:01:21;100341.53;;;4.93
76713;BMP280;65640;43.154;25.658;2023-04-06T03:03:47;100339.44;;;4.90
76713;BMP280;65640;43.154;25.658;2023-04-06T03:06:12;100343.91;;;4.95
76713;BMP280;65640;43.154;25.658;2023-04-06T03:08:38;100338.88;;;4.88
76713;BMP280;65640;43.154;25.658;2023-04-06T03:11:03;100338.88;;;4.88
76713;BMP280;65640;43.154;25.658;2023-04-06T03:13:28;100345.06;;;4.87
76713;BMP280;65640;43.154;25.658;2023-04-06T03:15:54;100334.47;;;4.89
76713;BMP280;65640;43.154;25.658;2023-04-06T03:18:24;100334.47;;;4.89
76713;BMP280;65640;43.154;25.658;2023-04-06T03:20:51;100335.03;;;4.91
76713;BMP280;65640;43.154;25.658;2023-04-06T03:23:18;100336.34;;;4.93
76713;BMP280;65640;43.154;25.658;2023-04-06T03:25:45;100335.03;;;4.91
76713;BMP280;65640;43.154;25.658;2023-04-06T03:28:11;100337.75;;;4.84
76713;BMP280;65640;43.154;25.658;2023-04-06T03:30:36;100340.56;;;4.83
76713;BMP280;65640;43.154;25.658;2023-04-06T03:33:02;100343.50;;;4.86
76713;BMP280;65640;43.154;25.658;2023-04-06T03:35:27;100339.53;;;4.84
76713;BMP280;65640;43.154;25.658;2023-04-06T03:37:52;100342.13;;;4.84
76713;BMP280;65640;43.154;25.658;2023-04-06T03:40:18;100349.69;;;4.85
76713;BMP280;65640;43.154;25.658;2023-04-06T03:42:43;100349.16;;;5.12
76713;BMP280;65640;43.154;25.658;2023-04-06T03:45:09;100343.56;;;5.48
76713;BMP280;65640;43.154;25.658;2023-04-06T03:47:34;100345.81;;;5.73
76713;BMP280;65640;43.154;25.658;2023-04-06T03:50:00;100336.91;;;5.69
76713;BMP280;65640;43.154;25.658;2023-04-06T03:52:25;100332.41;;;5.48
76713;BMP280;65640;43.154;25.658;2023-04-06T03:54:51;100341.50;;;5.33
76713;BMP280;65640;43.154;25.658;2023-04-06T03:57:17;100345.72;;;5.23
76713;BMP280;65640;43.154;25.658;2023-04-06T03:59:42;100344.19;;;5.10
76713;BMP280;65640;43.154;25.658;2023-04-06T04:02:08;100347.25;;;5.07
76713;BMP280;65640;43.154;25.658;2023-04-06T04:04:33;100339.38;;;5.02
76713;BMP280;65640;43.154;25.658;2023-04-06T04:06:59;100350.31;;;5.04
76713;BMP280;65640;43.154;25.658;2023-04-06T04:09:24;100350.66;;;5.08
76713;BMP280;65640;43.154;25.658;2023-04-06T04:11:49;100344.00;;;5.00
76713;BMP280;65640;43.154;25.658;2023-04-06T04:14:15;100342.97;;;5.01
76713;BMP280;65640;43.154;25.658;2023-04-06T04:16:40;100346.59;;;5.00
76713;BMP280;65640;43.154;25.658;2023-04-06T04:19:07;100349.09;;;4.95
76713;BMP280;65640;43.154;25.658;2023-04-06T04:21:32;100349.31;;;4.93
76713;BMP280;65640;43.154;25.658;2023-04-06T04:23:58;100345.72;;;4.94
76713;BMP280;65640;43.154;25.658;2023-04-06T04:26:23;100347.28;;;4.95
76713;BMP280;65640;43.154;25.658;2023-04-06T04:28:49;100347.53;;;4.94
76713;BMP280;65640;43.154;25.658;2023-04-06T04:31:14;100346.50;;;4.95
76713;BMP280;65640;43.154;25.658;2023-04-06T04:33:40;100342.41;;;4.99
76713;BMP280;65640;43.154;25.658;2023-04-06T04:36:05;100344.22;;;4.98
76713;BMP280;65640;43.154;25.658;2023-04-06T04:38:31;100338.59;;;5.01
76713;BMP280;65640;43.154;25.658;2023-04-06T04:40:56;100333.75;;;5.05
76713;BMP280;65640;43.154;25.658;2023-04-06T04:43:22;100344.44;;;5.09
76713;BMP280;65640;43.154;25.658;2023-04-06T04:45:47;100340.94;;;5.03
76713;BMP280;65640;43.154;25.658;2023-04-06T04:48:13;100345.53;;;5.13
76713;BMP280;65640;43.154;25.658;2023-04-06T04:50:38;100346.44;;;5.18
76713;BMP280;65640;43.154;25.658;2023-04-06T04:53:03;100357.91;;;5.22
76713;BMP280;65640;43.154;25.658;2023-04-06T04:55:31;100347.09;;;5.25
76713;BMP280;65640;43.154;25.658;2023-04-06T04:57:56;100354.38;;;5.28
76713;BMP280;65640;43.154;25.658;2023-04-06T05:00:21;100351.22;;;5.26
76713;BMP280;65640;43.154;25.658;2023-04-06T05:02:47;100350.22;;;5.27
76713;BMP280;65640;43.154;25.658;2023-04-06T05:05:12;100354.16;;;5.30
76713;BMP280;65640;43.154;25.658;2023-04-06T05:07:38;100347.03;;;5.37
76713;BMP280;65640;43.154;25.658;2023-04-06T05:10:04;100353.03;;;5.37
76713;BMP280;65640;43.154;25.658;2023-04-06T05:12:29;100357.56;;;5.47
76713;BMP280;65640;43.154;25.658;2023-04-06T05:14:55;100351.03;;;5.45
76713;BMP280;65640;43.154;25.658;2023-04-06T05:17:20;100349.19;;;5.40
76713;BMP280;65640;43.154;25.658;2023-04-06T05:19:45;100354.59;;;5.38
76713;BMP280;65640;43.154;25.658;2023-04-06T05:22:11;100345.00;;;5.39
76713;BMP280;65640;43.154;25.658;2023-04-06T05:24:39;100349.63;;;5.37
76713;BMP280;65640;43.154;25.658;2023-04-06T05:27:05;100354.41;;;5.45
76713;BMP280;65640;43.154;25.658;2023-04-06T05:29:30;100348.44;;;5.45
76713;BMP280;65640;43.154;25.658;2023-04-06T05:31:56;100345.78;;;5.40
76713;BMP280;65640;43.154;25.658;2023-04-06T05:34:22;100348.44;;;5.45
76713;BMP280;65640;43.154;25.658;2023-04-06T05:36:47;100348.75;;;5.48
76713;BMP280;65640;43.154;25.658;2023-04-06T05:39:12;100351.13;;;5.50
76713;BMP280;65640;43.154;25.658;2023-04-06T05:41:38;100342.31;;;5.51
76713;BMP280;65640;43.154;25.658;2023-04-06T05:44:04;100338.03;;;5.56
76713;BMP280;65640;43.154;25.658;2023-04-06T05:46:29;100325.91;;;5.62
76713;BMP280;65640;43.154;25.658;2023-04-06T05:48:55;100336.84;;;5.64
76713;BMP280;65640;43.154;25.658;2023-04-06T05:51:21;100332.75;;;5.68
76713;BMP280;65640;43.154;25.658;2023-04-06T05:53:46;100331.16;;;5.67
76713;BMP280;65640;43.154;25.658;2023-04-06T05:56:12;100330.38;;;5.66
76713;BMP280;65640;43.154;25.658;2023-04-06T05:58:37;100328.41;;;5.73
76713;BMP280;65640;43.154;25.658;2023-04-06T06:01:03;100327.63;;;5.73
76713;BMP280;65640;43.154;25.658;2023-04-06T06:03:30;100324.25;;;5.72
76713;BMP280;65640;43.154;25.658;2023-04-06T06:06:02;100320.47;;;5.80
76713;BMP280;65640;43.154;25.658;2023-04-06T06:08:28;100333.03;;;5.88
76713;BMP280;65640;43.154;25.658;2023-04-06T06:10:54;100326.91;;;5.94
76713;BMP280;65640;43.154;25.658;2023-04-06T06:13:20;100324.88;;;5.96
76713;BMP280;65640;43.154;25.658;2023-04-06T06:15:46;100320.69;;;5.95
76713;BMP280;65640;43.154;25.658;2023-04-06T06:18:11;100319.75;;;6.01
76713;BMP280;65640;43.154;25.658;2023-04-06T06:20:37;100317.22;;;6.06
76713;BMP280;65640;43.154;25.658;2023-04-06T06:23:02;100327.38;;;6.08
76713;BMP280;65640;43.154;25.658;2023-04-06T06:25:28;100308.97;;;6.09
76713;BMP280;65640;43.154;25.658;2023-04-06T06:27:56;100313.66;;;6.12
76713;BMP280;65640;43.154;25.658;2023-04-06T06:30:21;100315.28;;;6.19
76713;BMP280;65640;43.154;25.658;2023-04-06T06:32:46;100312.78;;;6.24
76713;BMP280;65640;43.154;25.658;2023-04-06T06:35:12;100316.50;;;6.33
76713;BMP280;65640;43.154;25.658;2023-04-06T06:37:37;100316.28;;;6.34
76713;BMP280;65640;43.154;25.658;2023-04-06T06:40:03;100304.16;;;6.40
76713;BMP280;65640;43.154;25.658;2023-04-06T06:42:28;100304.09;;;6.57
76713;BMP280;65640;43.154;25.658;2023-04-06T06:44:54;100307.06;;;6.65
76713;BMP280;65640;43.154;25.658;2023-04-06T06:47:20;100310.66;;;6.64
76713;BMP280;65640;43.154;25.658;2023-04-06T06:49:45;100305.53;;;6.69
76713;BMP280;65640;43.154;25.658;2023-04-06T06:52:11;100308.19;;;6.74
76713;BMP280;65640;43.154;25.658;2023-04-06T06:54:36;100302.75;;;6.76
76713;BMP280;65640;43.154;25.658;2023-04-06T06:57:02;100311.81;;;6.73
76713;BMP280;65640;43.154;25.658;2023-04-06T06:59:27;100314.88;;;6.92
76713;BMP280;65640;43.154;25.658;2023-04-06T07:01:52;100316.59;;;7.08
76713;BMP280;65640;43.154;25.658;2023-04-06T07:04:18;100318.47;;;7.13
76713;BMP280;65640;43.154;25.658;2023-04-06T07:06:43;100315.28;;;7.06
76713;BMP280;65640;43.154;25.658;2023-04-06T07:09:09;100313.56;;;6.89
76713;BMP280;65640;43.154;25.658;2023-04-06T07:11:34;100325.53;;;6.90
76713;BMP280;65640;43.154;25.658;2023-04-06T07:14:00;100316.69;;;6.92
76713;BMP280;65640;43.154;25.658;2023-04-06T07:16:25;100324.44;;;6.86
76713;BMP280;65640;43.154;25.658;2023-04-06T07:18:50;100323.72;;;6.91
76713;BMP280;65640;43.154;25.658;2023-04-06T07:21:16;100319.16;;;7.03
76713;BMP280;65640;43.154;25.658;2023-04-06T07:23:41;100332.41;;;7.02
76713;BMP280;65640;43.154;25.658;2023-04-06T07:26:07;100321.94;;;6.97
76713;BMP280;65640;43.154;25.658;2023-04-06T07:28:32;100320.34;;;6.90
76713;BMP280;65640;43.154;25.658;2023-04-06T07:30:58;100320.78;;;6.82
76713;BMP280;65640;43.154;25.658;2023-04-06T07:33:23;100317.00;;;6.95
76713;BMP280;65640;43.154;25.658;2023-04-06T07:35:49;100319.63;;;7.00
76713;BMP280;65640;43.154;25.658;2023-04-06T07:38:14;100327.16;;;6.97
76713;BMP280;65640;43.154;25.658;2023-04-06T07:40:40;100323.56;;;7.03
76713;BMP280;65640;43.154;25.658;2023-04-06T07:43:05;100316.88;;;7.12
76713;BMP280;65640;43.154;25.658;2023-04-06T07:45:31;100319.38;;;7.02
76713;BMP280;65640;43.154;25.658;2023-04-06T07:47:57;100319.94;;;7.04
76713;BMP280;65640;43.154;25.658;2023-04-06T07:50:22;100319.56;;;7.17
76713;BMP280;65640;43.154;25.658;2023-04-06T07:52:47;100316.16;;;7.16
76713;BMP280;65640;43.154;25.658;2023-04-06T07:55:13;100319.31;;;7.23
76713;BMP280;65640;43.154;25.658;2023-04-06T07:57:39;100318.06;;;7.26
76713;BMP280;65640;43.154;25.658;2023-04-06T08:00:06;100317.19;;;7.42
76713;BMP280;65640;43.154;25.658;2023-04-06T08:02:32;100314.28;;;7.39
76713;BMP280;65640;43.154;25.658;2023-04-06T08:04:57;100316.09;;;7.38
76713;BMP280;65640;43.154;25.658;2023-04-06T08:07:23;100316.94;;;7.49
76713;BMP280;65640;43.154;25.658;2023-04-06T08:09:48;100315.09;;;7.44
76713;BMP280;65640;43.154;25.658;2023-04-06T08:12:14;100303.97;;;7.54
76713;BMP280;65640;43.154;25.658;2023-04-06T08:14:39;100302.47;;;7.63
76713;BMP280;65640;43.154;25.658;2023-04-06T08:17:05;100304.31;;;7.67
76713;BMP280;65640;43.154;25.658;2023-04-06T08:19:30;100303.34;;;7.79
76713;BMP280;65640;43.154;25.658;2023-04-06T08:21:56;100303.22;;;8.00
76713;BMP280;65640;43.154;25.658;2023-04-06T08:24:21;100298.03;;;8.05
76713;BMP280;65640;43.154;25.658;2023-04-06T08:26:46;100307.94;;;8.03
76713;BMP280;65640;43.154;25.658;2023-04-06T08:29:12;100300.34;;;7.97
76713;BMP280;65640;43.154;25.658;2023-04-06T08:31:39;100305.00;;;7.90
76713;BMP280;65640;43.154;25.658;2023-04-06T08:34:04;100312.84;;;7.95
76713;BMP280;65640;43.154;25.658;2023-04-06T08:36:30;100305.88;;;8.05
76713;BMP280;65640;43.154;25.658;2023-04-06T08:38:56;100304.06;;;8.11
76713;BMP280;65640;43.154;25.658;2023-04-06T08:41:22;100305.63;;;8.12
76713;BMP280;65640;43.154;25.658;2023-04-06T08:44:01;100306.97;;;8.20
76713;BMP280;65640;43.154;25.658;2023-04-06T08:46:28;100307.22;;;8.18
76713;BMP280;65640;43.154;25.658;2023-04-06T08:48:59;100310.31;;;8.10
76713;BMP280;65640;43.154;25.658;2023-04-06T08:51:26;100311.88;;;8.11
76713;BMP280;65640;43.154;25.658;2023-04-06T08:53:55;100310.06;;;8.12
76713;BMP280;65640;43.154;25.658;2023-04-06T08:56:26;100313.38;;;8.02
76713;BMP280;65640;43.154;25.658;2023-04-06T08:58:53;100310.84;;;8.12
76713;BMP280;65640;43.154;25.658;2023-04-06T09:01:25;100310.63;;;8.19
76713;BMP280;65640;43.154;25.658;2023-04-06T09:03:51;100316.66;;;8.29
76713;BMP280;65640;43.154;25.658;2023-04-06T09:06:20;100310.84;;;8.12
76713;BMP280;65640;43.154;25.658;2023-04-06T09:08:46;100315.06;;;8.23
76713;BMP280;65640;43.154;25.658;2023-04-06T09:11:11;100313.97;;;8.14
76713;BMP280;65640;43.154;25.658;2023-04-06T09:13:55;100307.72;;;8.15
76713;BMP280;65640;43.154;25.658;2023-04-06T09:16:21;100307.22;;;8.18
76713;BMP280;65640;43.154;25.658;2023-04-06T09:18:48;100304.63;;;8.18
76713;BMP280;65640;43.154;25.658;2023-04-06T09:21:17;100303.59;;;8.24
76713;BMP280;65640;43.154;25.658;2023-04-06T09:23:43;100309.00;;;8.13
76713;BMP280;65640;43.154;25.658;2023-04-06T09:26:11;100304.75;;;7.96
76713;BMP280;65640;43.154;25.658;2023-04-06T09:28:57;100296.41;;;7.94
76713;BMP280;65640;43.154;25.658;2023-04-06T09:31:23;100292.34;;;8.09
76713;BMP280;65640;43.154;25.658;2023-04-06T09:33:49;100289.97;;;8.07
76713;BMP280;65640;43.154;25.658;2023-04-06T09:36:15;100292.09;;;8.20
76713;BMP280;65640;43.154;25.658;2023-04-06T09:39:03;100294.19;;;8.18
76713;BMP280;65640;43.154;25.658;2023-04-06T09:41:35;100287.69;;;8.26
76713;BMP280;65640;43.154;25.658;2023-04-06T09:46:32;100277.09;;;8.48
76713;BMP280;65640;43.154;25.658;2023-04-06T09:48:59;100267.19;;;8.55
76713;BMP280;65640;43.154;25.658;2023-04-06T09:51:26;100269.31;;;8.68
76713;BMP280;65640;43.154;25.658;2023-04-06T09:53:53;100266.72;;;9.08
76713;BMP280;65640;43.154;25.658;2023-04-06T09:56:24;100276.91;;;9.25
76713;BMP280;65640;43.154;25.658;2023-04-06T09:58:57;100271.94;;;9.34
76713;BMP280;65640;43.154;25.658;2023-04-06T10:01:28;100278.47;;;9.06
76713;BMP280;65640;43.154;25.658;2023-04-06T10:04:13;100271.97;;;8.98
76713;BMP280;65640;43.154;25.658;2023-04-06T10:06:43;100265.41;;;9.16
76713;BMP280;65640;43.154;25.658;2023-04-06T10:09:10;100267.19;;;9.51
76713;BMP280;65640;43.154;25.658;2023-04-06T10:11:36;100268.16;;;9.75
76713;BMP280;65640;43.154;25.658;2023-04-06T10:14:02;100271.56;;;9.81
76713;BMP280;65640;43.154;25.658;2023-04-06T10:16:28;100261.31;;;9.99
76713;BMP280;65640;43.154;25.658;2023-04-06T10:18:56;100265.69;;;10.09
76713;BMP280;65640;43.154;25.658;2023-04-06T10:21:25;100262.34;;;10.09
76713;BMP280;65640;43.154;25.658;2023-04-06T10:24:02;100258.91;;;10.13
76713;BMP280;65640;43.154;25.658;2023-04-06T10:26:27;100259.34;;;10.30
76713;BMP280;65640;43.154;25.658;2023-04-06T10:28:53;100263.75;;;10.35
76713;BMP280;65640;43.154;25.658;2023-04-06T10:31:27;100263.38;;;10.57
76713;BMP280;65640;43.154;25.658;2023-04-06T10:34:00;100254.75;;;10.51
76713;BMP280;65640;43.154;25.658;2023-04-06T10:36:27;100245.88;;;10.47
76713;BMP280;65640;43.154;25.658;2023-04-06T10:39:01;100247.31;;;10.29
76713;BMP280;65640;43.154;25.658;2023-04-06T10:41:44;100236.97;;;10.48
76713;BMP280;65640;43.154;25.658;2023-04-06T10:44:23;100239.03;;;10.56
76713;BMP280;65640;43.154;25.658;2023-04-06T10:46:56;100242.16;;;10.58
76713;BMP280;65640;43.154;25.658;2023-04-06T10:49:21;100250.13;;;10.77
76713;BMP280;65640;43.154;25.658;2023-04-06T10:51:54;100244.25;;;10.90
76713;BMP280;65640;43.154;25.658;2023-04-06T10:54:24;100247.94;;;10.55
76713;BMP280;65640;43.154;25.658;2023-04-06T10:56:50;100243.94;;;10.19
76713;BMP280;65640;43.154;25.658;2023-04-06T10:59:22;100239.56;;;10.09
76713;BMP280;65640;43.154;25.658;2023-04-06T11:01:49;100234.59;;;10.13
76713;BMP280;65640;43.154;25.658;2023-04-06T11:04:19;100246.78;;;10.27
76713;BMP280;65640;43.154;25.658;2023-04-06T11:06:49;100234.25;;;10.63
76713;BMP280;65640;43.154;25.658;2023-04-06T11:11:50;100226.38;;;11.26
76713;BMP280;65640;43.154;25.658;2023-04-06T11:14:15;100225.41;;;11.17
76713;BMP280;65640;43.154;25.658;2023-04-06T11:16:41;100226.78;;;11.09
76713;BMP280;65640;43.154;25.658;2023-04-06T11:19:06;100213.69;;;11.09
76713;BMP280;65640;43.154;25.658;2023-04-06T11:21:48;100215.50;;;11.09
76713;BMP280;65640;43.154;25.658;2023-04-06T11:24:21;100212.81;;;11.19
76713;BMP280;65640;43.154;25.658;2023-04-06T11:26:52;100216.97;;;10.96
76713;BMP280;65640;43.154;25.658;2023-04-06T11:29:28;100208.91;;;10.87
76713;BMP280;65640;43.154;25.658;2023-04-06T11:34:24;100209.75;;;11.12
76713;BMP280;65640;43.154;25.658;2023-04-06T11:37:07;100202.09;;;10.86
76713;BMP280;65640;43.154;25.658;2023-04-06T11:39:39;100213.47;;;11.06
76713;BMP280;65640;43.154;25.658;2023-04-06T11:42:05;100206.38;;;11.06
76713;BMP280;65640;43.154;25.658;2023-04-06T11:44:32;100207.63;;;11.38
76713;BMP280;65640;43.154;25.658;2023-04-06T11:46:57;100199.81;;;11.56
76713;BMP280;65640;43.154;25.658;2023-04-06T11:49:26;100203.06;;;11.48
76713;BMP280;65640;43.154;25.658;2023-04-06T11:51:52;100205.00;;;11.38
76713;BMP280;65640;43.154;25.658;2023-04-06T11:54:17;100208.69;;;11.13
76713;BMP280;65640;43.154;25.658;2023-04-06T11:56:46;100200.53;;;11.14
76713;BMP280;65640;43.154;25.658;2023-04-06T11:59:11;100197.44;;;11.07
76713;BMP280;65640;43.154;25.658;2023-04-06T12:01:45;100196.19;;;11.28
76713;BMP280;65640;43.154;25.658;2023-04-06T12:04:10;100187.66;;;11.42
76713;BMP280;65640;43.154;25.658;2023-04-06T12:06:36;100193.63;;;11.47
76713;BMP280;65640;43.154;25.658;2023-04-06T12:09:01;100187.44;;;11.38
76713;BMP280;65640;43.154;25.658;2023-04-06T12:11:27;100188.72;;;11.64
76713;BMP280;65640;43.154;25.658;2023-04-06T12:13:53;100193.44;;;11.62
76713;BMP280;65640;43.154;25.658;2023-04-06T12:16:18;100190.81;;;11.62
76713;BMP280;65640;43.154;25.658;2023-04-06T12:18:44;100188.63;;;11.69
76713;BMP280;65640;43.154;25.658;2023-04-06T12:21:10;100184.47;;;11.68
76713;BMP280;65640;43.154;25.658;2023-04-06T12:23:35;100186.38;;;11.82
76713;BMP280;65640;43.154;25.658;2023-04-06T12:26:01;100182.00;;;11.53
76713;BMP280;65640;43.154;25.658;2023-04-06T12:28:27;100190.91;;;11.52
76713;BMP280;65640;43.154;25.658;2023-04-06T12:30:53;100183.63;;;11.73
76713;BMP280;65640;43.154;25.658;2023-04-06T12:33:19;100184.25;;;11.84
76713;BMP280;65640;43.154;25.658;2023-04-06T12:35:45;100181.34;;;11.85
76713;BMP280;65640;43.154;25.658;2023-04-06T12:38:11;100181.28;;;11.71
76713;BMP280;65640;43.154;25.658;2023-04-06T12:40:37;100183.06;;;11.95
76713;BMP280;65640;43.154;25.658;2023-04-06T12:43:03;100174.13;;;11.96
76713;BMP280;65640;43.154;25.658;2023-04-06T12:45:30;100181.34;;;11.85
76713;BMP280;65640;43.154;25.658;2023-04-06T12:47:56;100173.03;;;11.97
76713;BMP280;65640;43.154;25.658;2023-04-06T12:50:22;100177.03;;;12.13
76713;BMP280;65640;43.154;25.658;2023-04-06T12:52:47;100171.97;;;11.98
76713;BMP280;65640;43.154;25.658;2023-04-06T12:55:13;100170.59;;;11.87
76713;BMP280;65640;43.154;25.658;2023-04-06T12:57:38;100171.47;;;11.77
76713;BMP280;65640;43.154;25.658;2023-04-06T13:00:05;100159.66;;;11.80
76713;BMP280;65640;43.154;25.658;2023-04-06T13:02:30;100166.47;;;11.81
76713;BMP280;65640;43.154;25.658;2023-04-06T13:04:56;100157.75;;;11.85
76713;BMP280;65640;43.154;25.658;2023-04-06T13:07:22;100158.16;;;12.11
76713;BMP280;65640;43.154;25.658;2023-04-06T13:09:47;100146.75;;;12.34
76713;BMP280;65640;43.154;25.658;2023-04-06T13:12:15;100140.75;;;12.47
76713;BMP280;65640;43.154;25.658;2023-04-06T13:14:40;100138.00;;;13.12
76713;BMP280;65640;43.154;25.658;2023-04-06T13:17:06;100136.69;;;13.51
76713;BMP280;65640;43.154;25.658;2023-04-06T13:19:32;100137.88;;;13.31
76713;BMP280;65640;43.154;25.658;2023-04-06T13:21:57;100130.50;;;12.92
76713;BMP280;65640;43.154;25.658;2023-04-06T13:24:23;100133.19;;;12.60
76713;BMP280;65640;43.154;25.658;2023-04-06T13:26:49;100131.41;;;12.41
76713;BMP280;65640;43.154;25.658;2023-04-06T13:29:14;100128.31;;;12.53
76713;BMP280;65640;43.154;25.658;2023-04-06T13:31:40;100121.34;;;12.76
76713;BMP280;65640;43.154;25.658;2023-04-06T13:34:06;100124.09;;;12.98
76713;BMP280;65640;43.154;25.658;2023-04-06T13:36:31;100123.56;;;12.69
76713;BMP280;65640;43.154;25.658;2023-04-06T13:38:58;100119.78;;;12.75
76713;BMP280;65640;43.154;25.658;2023-04-06T13:41:25;100120.28;;;12.90
76713;BMP280;65640;43.154;25.658;2023-04-06T13:43:52;100113.88;;;12.83
76713;BMP280;65640;43.154;25.658;2023-04-06T13:46:17;100111.50;;;12.68
76713;BMP280;65640;43.154;25.658;2023-04-06T13:48:43;100113.75;;;12.61
76713;BMP280;65640;43.154;25.658;2023-04-06T13:51:12;100109.19;;;12.80
76713;BMP280;65640;43.154;25.658;2023-04-06T13:53:39;100115.59;;;12.74
76713;BMP280;65640;43.154;25.658;2023-04-06T13:56:05;100120.56;;;12.62
76713;BMP280;65640;43.154;25.658;2023-04-06T13:58:30;100119.81;;;12.29